Time;durP1;ratioP1;P1;durP2;ratioP2;P2;SDS_P1;SDS_P2;PMS_P1;PMS_P2;Temp;Humidity;BMP_temperature;BMP_pressure;BME280_temperature;BME280_humidity;BME280_pressure;Samples;Min_cycle;Max_cycle;Signal;HPM_P1;HPM_P2
2021/01/07 00:01:49;;;;;;;9.82;7.13;;;1.80;99.90;;;;;;5064425;28;20253;-85
2021/01/07 00:07:28;;;;;;;10.70;8.18;;;1.70;99.90;;;;;;5063594;28;20227;-83
2021/01/07 00:10:08;;;;;;;10.18;7.90;;;1.70;99.90;;;;;;5069208;28;20246;-86
2021/01/07 00:12:37;;;;;;;9.25;8.02;;;1.70;99.90;;;;;;5071222;28;20203;-84
2021/01/07 00:15:24;;;;;;;9.15;7.50;;;1.70;99.90;;;;;;5069704;28;20211;-85
2021/01/07 00:18:03;;;;;;;9.90;7.80;;;1.80;99.90;;;;;;5068795;28;20184;-83
2021/01/07 00:20:33;;;;;;;9.68;7.40;;;1.70;99.90;;;;;;5069070;28;20222;-85
2021/01/07 00:23:00;;;;;;;10.10;7.07;;;1.70;99.90;;;;;;5069072;28;20218;-86
2021/01/07 00:25:27;;;;;;;9.50;7.53;;;1.80;99.90;;;;;;5068669;28;20199;-83
2021/01/07 00:28:47;;;;;;;9.48;7.35;;;1.80;99.90;;;;;;5067490;28;20210;-83
2021/01/07 00:31:28;;;;;;;8.35;6.90;;;1.80;99.90;;;;;;4984830;28;20349;-86
2021/01/07 00:33:57;;;;;;;10.55;7.20;;;1.70;99.90;;;;;;5077236;28;20199;-85
2021/01/07 00:36:40;;;;;;;10.45;7.45;;;1.70;99.90;;;;;;5075437;28;20187;-85
2021/01/07 00:39:25;;;;;;;7.85;7.00;;;1.80;99.90;;;;;;5074196;28;20191;-85
2021/01/07 00:42:01;;;;;;;12.43;8.15;;;1.70;99.90;;;;;;5070096;28;20217;-85
2021/01/07 00:44:36;;;;;;;7.97;7.07;;;1.70;99.90;;;;;;5068435;28;20210;-86
2021/01/07 00:47:21;;;;;;;8.57;6.38;;;1.80;99.90;;;;;;5067066;28;20223;-84
2021/01/07 00:49:54;;;;;;;9.68;7.28;;;1.70;99.90;;;;;;5064232;28;20231;-83
2021/01/07 00:52:48;;;;;;;9.13;7.72;;;1.70;99.90;;;;;;5069168;28;20210;-83
2021/01/07 00:55:17;;;;;;;8.32;7.00;;;1.80;99.90;;;;;;5068176;28;20187;-82
2021/01/07 00:57:46;;;;;;;8.73;6.55;;;1.70;99.90;;;;;;5066782;28;20207;-84
2021/01/07 01:00:38;;;;;;;8.45;6.88;;;1.70;99.90;;;;;;5065799;28;20222;-83
2021/01/07 01:03:41;;;;;;;9.90;7.72;;;1.70;99.90;;;;;;5064618;28;20199;-83
2021/01/07 01:06:21;;;;;;;9.80;8.20;;;1.60;99.90;;;;;;5064203;28;20203;-83
2021/01/07 01:09:08;;;;;;;6.80;6.10;;;1.70;99.90;;;;;;5063384;28;20194;-81
2021/01/07 01:14:51;;;;;;;7.60;6.80;;;1.70;99.90;;;;;;5061620;28;20207;-84
2021/01/07 01:17:22;;;;;;;7.80;6.80;;;1.70;99.90;;;;;;5064805;28;20198;-83
2021/01/07 01:34:59;;;;;;;7.43;6.28;;;1.80;99.90;;;;;;4810410;29;20669;-82
2021/01/07 01:37:36;;;;;;;8.45;7.28;;;1.80;99.90;;;;;;4912137;28;20606;-85
2021/01/07 01:40:08;;;;;;;6.97;6.28;;;1.70;99.90;;;;;;4980281;28;20225;-85
2021/01/07 01:42:37;;;;;;;6.22;5.63;;;1.70;99.90;;;;;;5049406;28;20202;-84
2021/01/07 01:45:04;;;;;;;6.18;5.57;;;1.70;99.90;;;;;;5062582;28;20194;-84
2021/01/07 01:47:31;;;;;;;7.25;6.47;;;1.70;99.90;;;;;;5062380;28;20329;-85
2021/01/07 01:50:35;;;;;;;6.88;6.20;;;1.70;99.90;;;;;;5072873;28;20230;-86
2021/01/07 01:53:09;;;;;;;7.75;6.45;;;1.70;99.90;;;;;;5065297;28;20216;-85
2021/01/07 01:55:36;;;;;;;7.40;5.25;;;1.70;99.90;;;;;;5068990;28;20542;-85
2021/01/07 01:58:05;;;;;;;5.90;5.28;;;1.70;99.90;;;;;;5067961;28;20210;-85
2021/01/07 02:00:34;;;;;;;6.85;6.25;;;1.80;99.90;;;;;;5068360;28;20227;-83
2021/01/07 02:03:00;;;;;;;9.43;5.47;;;1.70;99.90;;;;;;5068460;28;20235;-84
2021/01/07 02:05:29;;;;;;;6.15;5.55;;;1.80;99.90;;;;;;5069186;28;20316;-86
2021/01/07 02:07:56;;;;;;;6.32;5.72;;;1.80;99.90;;;;;;5069009;28;20230;-83
2021/01/07 02:10:25;;;;;;;5.90;5.35;;;1.80;99.90;;;;;;5073661;28;20203;-84
2021/01/07 02:14:07;;;;;;;7.15;6.45;;;1.80;99.90;;;;;;5077231;28;20195;-85
2021/01/07 03:14:59;;;;;;;6.30;5.38;;;1.40;99.90;;;;;;4990252;28;20205;-82
2021/01/07 03:18:33;;;;;;;7.55;6.53;;;1.50;99.90;;;;;;5067524;28;20233;-82
2021/01/07 03:24:37;;;;;;;7.53;6.03;;;1.60;99.90;;;;;;5063221;28;20207;-82
2021/01/07 03:27:08;;;;;;;7.15;5.38;;;1.60;99.90;;;;;;5072988;28;20226;-86
2021/01/07 03:29:42;;;;;;;6.10;5.47;;;1.60;99.90;;;;;;5075058;28;20223;-86
2021/01/07 03:32:14;;;;;;;7.93;6.78;;;1.60;99.90;;;;;;5079207;28;20240;-85
2021/01/07 03:34:40;;;;;;;9.10;5.97;;;1.60;99.90;;;;;;5080065;22;20231;-85
2021/01/07 03:37:06;;;;;;;8.23;6.25;;;1.60;99.90;;;;;;5059639;28;20731;-84
2021/01/07 03:39:33;;;;;;;8.55;6.72;;;1.60;99.90;;;;;;5059303;28;20544;-84
2021/01/07 03:42:00;;;;;;;7.60;5.43;;;1.60;99.90;;;;;;5059924;28;20341;-84
2021/01/07 03:44:26;;;;;;;6.78;5.60;;;1.70;99.90;;;;;;5061663;28;20290;-84
2021/01/07 03:46:52;;;;;;;7.07;6.13;;;1.50;99.90;;;;;;5062838;28;20651;-85
2021/01/07 03:49:19;;;;;;;9.40;6.63;;;1.50;99.90;;;;;;5060367;28;20743;-84
2021/01/07 03:51:45;;;;;;;10.57;7.20;;;1.50;99.90;;;;;;5060919;28;20310;-85
2021/01/07 03:54:11;;;;;;;10.38;6.50;;;1.60;99.90;;;;;;5061334;28;20314;-85
2021/01/07 03:56:38;;;;;;;9.60;6.90;;;1.50;99.90;;;;;;5059939;28;20202;-85
2021/01/07 03:59:05;;;;;;;8.05;6.85;;;1.60;99.90;;;;;;5062714;28;20250;-84
2021/01/07 04:01:31;;;;;;;9.57;6.85;;;1.60;99.90;;;;;;5062454;28;20396;-84
2021/01/07 04:03:57;;;;;;;10.00;7.50;;;1.50;99.90;;;;;;5059349;28;20227;-84
2021/01/07 04:06:24;;;;;;;9.93;8.07;;;1.50;99.90;;;;;;5061855;28;20203;-85
2021/01/07 04:08:50;;;;;;;11.05;7.82;;;1.60;99.90;;;;;;5062956;28;20203;-85
2021/01/07 04:11:17;;;;;;;10.27;7.50;;;1.60;99.90;;;;;;5061941;28;20210;-84
2021/01/07 04:13:44;;;;;;;11.60;7.88;;;1.60;99.90;;;;;;5061013;28;20499;-86
2021/01/07 04:16:10;;;;;;;10.98;8.05;;;1.70;99.90;;;;;;5063147;28;20443;-85
2021/01/07 04:18:37;;;;;;;11.05;7.05;;;1.60;99.90;;;;;;5060144;28;20684;-85
2021/01/07 04:21:03;;;;;;;10.43;8.70;;;1.70;99.90;;;;;;5062918;28;20205;-84
2021/01/07 04:23:30;;;;;;;10.27;7.47;;;1.70;99.90;;;;;;5061495;28;20555;-84
2021/01/07 04:25:56;;;;;;;11.88;9.35;;;1.60;99.90;;;;;;5058997;28;20289;-84
2021/01/07 04:28:23;;;;;;;13.80;8.43;;;1.60;99.90;;;;;;5058822;28;20233;-85
2021/01/07 04:30:50;;;;;;;12.32;8.38;;;1.60;99.90;;;;;;5059918;28;20539;-84
2021/01/07 04:33:17;;;;;;;10.18;7.47;;;1.60;99.90;;;;;;5059218;28;20739;-83
2021/01/07 04:35:44;;;;;;;9.82;8.23;;;1.70;99.90;;;;;;5058816;28;20215;-85
2021/01/07 04:38:10;;;;;;;11.13;8.23;;;1.60;99.90;;;;;;5059020;28;20237;-85
2021/01/07 04:40:36;;;;;;;13.15;8.55;;;1.60;99.90;;;;;;5059336;28;20286;-84
2021/01/07 04:43:03;;;;;;;11.35;8.70;;;1.70;99.90;;;;;;5059472;28;20599;-84
2021/01/07 04:45:29;;;;;;;9.98;7.68;;;1.70;99.90;;;;;;5060349;28;20219;-85
2021/01/07 04:47:58;;;;;;;11.13;7.80;;;1.70;99.90;;;;;;5061372;28;20227;-84
2021/01/07 04:50:24;;;;;;;11.18;7.85;;;1.70;99.90;;;;;;5063742;28;20443;-84
2021/01/07 04:52:51;;;;;;;14.30;9.52;;;1.80;99.90;;;;;;5067257;28;20522;-84
2021/01/07 04:55:17;;;;;;;11.65;8.05;;;1.70;99.90;;;;;;5070215;28;20223;-84
2021/01/07 04:57:43;;;;;;;10.75;8.20;;;1.60;99.90;;;;;;5073312;28;20250;-84
2021/01/07 05:00:12;;;;;;;13.00;8.75;;;1.60;99.90;;;;;;5073882;28;20266;-84
2021/01/07 05:02:39;;;;;;;10.88;7.75;;;1.50;99.90;;;;;;5065637;28;20681;-84
2021/01/07 05:05:07;;;;;;;11.43;8.23;;;1.60;99.90;;;;;;5062855;28;20230;-84
2021/01/07 05:07:37;;;;;;;9.95;7.22;;;1.50;99.90;;;;;;5061001;28;20667;-84
2021/01/07 05:10:05;;;;;;;10.48;7.68;;;1.60;99.90;;;;;;5059891;28;20210;-85
2021/01/07 05:12:32;;;;;;;11.55;8.43;;;1.60;99.90;;;;;;5059551;28;20223;-85
2021/01/07 05:14:58;;;;;;;9.35;6.93;;;1.60;99.90;;;;;;5058593;28;20233;-85
2021/01/07 05:17:24;;;;;;;11.23;8.15;;;1.60;99.90;;;;;;5062998;28;20433;-85
2021/01/07 05:19:51;;;;;;;11.25;8.68;;;1.60;99.90;;;;;;5064134;28;20239;-84
2021/01/07 05:22:18;;;;;;;12.82;9.63;;;1.50;99.90;;;;;;5063359;28;20207;-85
2021/01/07 05:24:44;;;;;;;12.27;8.88;;;1.50;99.90;;;;;;5060052;28;20440;-84
2021/01/07 05:27:12;;;;;;;13.27;9.85;;;1.50;99.90;;;;;;5060871;28;20477;-84
2021/01/07 05:29:40;;;;;;;13.30;9.18;;;1.50;99.90;;;;;;5061748;28;20203;-84
2021/01/07 05:32:07;;;;;;;11.15;7.50;;;1.50;99.90;;;;;;5060902;28;20199;-85
2021/01/07 05:34:45;;;;;;;10.98;7.90;;;1.50;99.90;;;;;;5060177;28;20241;-85
2021/01/07 05:37:16;;;;;;;11.63;9.75;;;1.50;99.90;;;;;;5059633;28;20191;-85
2021/01/07 05:39:46;;;;;;;13.13;9.18;;;1.50;99.90;;;;;;5058508;28;20183;-85
2021/01/07 05:42:12;;;;;;;12.13;8.65;;;1.60;99.90;;;;;;5058462;28;20577;-84
2021/01/07 05:44:43;;;;;;;14.18;8.95;;;1.60;99.90;;;;;;5057782;28;20219;-84
2021/01/07 05:47:10;;;;;;;15.85;9.73;;;1.60;99.90;;;;;;5058543;28;20203;-85
2021/01/07 05:49:37;;;;;;;12.95;8.98;;;1.70;99.90;;;;;;5057744;28;20582;-85
2021/01/07 05:52:07;;;;;;;13.70;8.55;;;1.60;99.90;;;;;;5059868;28;20210;-85
2021/01/07 05:54:34;;;;;;;11.70;8.73;;;1.70;99.90;;;;;;5058838;28;20227;-84
2021/01/07 05:57:04;;;;;;;13.52;9.35;;;1.50;99.90;;;;;;5059330;28;20210;-84
2021/01/07 05:59:33;;;;;;;16.67;10.02;;;1.50;99.90;;;;;;5059087;28;20709;-84
2021/01/07 06:02:02;;;;;;;13.85;9.43;;;1.40;99.90;;;;;;5058897;28;20215;-85
2021/01/07 06:04:32;;;;;;;14.00;9.43;;;1.50;99.90;;;;;;5065126;28;20226;-84
2021/01/07 06:06:58;;;;;;;14.27;10.07;;;1.50;99.90;;;;;;5061144;28;20241;-85
2021/01/07 06:09:29;;;;;;;13.40;10.18;;;1.40;99.90;;;;;;5059027;28;20275;-85
2021/01/07 06:11:59;;;;;;;13.90;10.80;;;1.50;99.90;;;;;;5060379;28;20674;-84
2021/01/07 06:14:27;;;;;;;12.60;9.15;;;1.50;99.90;;;;;;5059404;28;20593;-84
2021/01/07 06:16:54;;;;;;;13.38;8.80;;;1.50;99.90;;;;;;5058647;28;20203;-84
2021/01/07 06:19:30;;;;;;;12.20;8.30;;;1.50;99.90;;;;;;5059651;28;20294;-84
2021/01/07 06:22:01;;;;;;;14.68;10.15;;;1.50;99.90;;;;;;5060201;28;20266;-84
2021/01/07 06:24:30;;;;;;;12.90;9.35;;;1.50;99.90;;;;;;5060913;28;20250;-84
2021/01/07 06:27:17;;;;;;;15.18;9.57;;;1.50;99.90;;;;;;5062605;28;20243;-85
2021/01/07 06:29:44;;;;;;;11.27;9.32;;;1.50;99.90;;;;;;5061442;28;20230;-85
2021/01/07 06:32:10;;;;;;;11.30;8.60;;;1.50;99.90;;;;;;5060784;28;20210;-86
2021/01/07 06:34:39;;;;;;;12.88;8.40;;;1.50;99.90;;;;;;5069045;28;20238;-85
2021/01/07 06:37:05;;;;;;;13.05;8.38;;;1.50;99.90;;;;;;5077077;28;20179;-85
2021/01/07 06:39:40;;;;;;;11.98;9.32;;;1.50;99.90;;;;;;5076643;28;20297;-84
2021/01/07 06:42:07;;;;;;;11.18;8.80;;;1.60;99.90;;;;;;5072223;28;20194;-84
2021/01/07 06:44:35;;;;;;;11.23;8.30;;;1.60;99.90;;;;;;5063987;28;20230;-84
2021/01/07 06:47:17;;;;;;;11.93;9.07;;;1.60;99.90;;;;;;5060755;28;20218;-84
2021/01/07 06:49:45;;;;;;;13.52;9.10;;;1.60;99.90;;;;;;5060883;28;20258;-86
2021/01/07 06:52:11;;;;;;;14.85;9.10;;;1.50;99.90;;;;;;5062928;28;20202;-85
2021/01/07 06:54:41;;;;;;;15.73;10.27;;;1.60;99.90;;;;;;5065877;28;20314;-84
2021/01/07 06:57:09;;;;;;;15.35;10.15;;;1.60;99.90;;;;;;5064959;28;20229;-84
2021/01/07 06:59:36;;;;;;;15.38;9.75;;;1.70;99.90;;;;;;5072168;28;20199;-84
2021/01/07 07:02:06;;;;;;;14.18;9.90;;;1.60;99.90;;;;;;5076841;28;20242;-84
2021/01/07 07:04:34;;;;;;;11.73;9.32;;;1.60;99.90;;;;;;5076856;28;20279;-84
2021/01/07 07:07:02;;;;;;;11.85;9.52;;;1.60;99.90;;;;;;5075691;28;20218;-84
2021/01/07 07:09:39;;;;;;;13.77;9.10;;;1.60;99.90;;;;;;5076647;28;20231;-84
2021/01/07 07:12:07;;;;;;;14.68;9.85;;;1.60;99.90;;;;;;5076998;28;20187;-83
2021/01/07 07:14:34;;;;;;;14.82;9.90;;;1.50;99.90;;;;;;5076177;28;20223;-84
2021/01/07 07:17:08;;;;;;;14.35;9.50;;;1.60;99.90;;;;;;5074711;28;20227;-84
2021/01/07 07:19:40;;;;;;;13.02;9.63;;;1.60;99.90;;;;;;5075275;28;20290;-84
2021/01/07 07:22:10;;;;;;;13.60;9.85;;;1.60;99.90;;;;;;5073657;28;20194;-84
2021/01/07 07:24:39;;;;;;;14.85;9.32;;;1.70;99.90;;;;;;5073902;28;20219;-84
2021/01/07 07:27:11;;;;;;;12.52;9.18;;;1.70;99.90;;;;;;5071851;28;20219;-84
2021/01/07 07:29:41;;;;;;;13.43;9.63;;;1.70;99.90;;;;;;5068251;28;20215;-84
2021/01/07 07:32:25;;;;;;;16.38;9.90;;;1.60;99.90;;;;;;5061268;28;20199;-85
2021/01/07 07:34:54;;;;;;;14.18;9.57;;;1.60;99.90;;;;;;5062357;28;20316;-84
2021/01/07 07:37:22;;;;;;;13.82;9.35;;;1.70;99.90;;;;;;5060575;28;20199;-84
2021/01/07 07:39:50;;;;;;;14.50;9.88;;;1.70;99.90;;;;;;5060467;28;20229;-84
2021/01/07 07:42:17;;;;;;;14.90;9.63;;;1.70;99.90;;;;;;5058659;28;20209;-84
2021/01/07 07:44:44;;;;;;;14.10;9.60;;;1.60;99.90;;;;;;5057361;28;20218;-85
2021/01/07 07:47:10;;;;;;;11.90;9.02;;;1.70;99.90;;;;;;5057357;28;20222;-85
2021/01/07 07:49:37;;;;;;;12.55;9.18;;;1.80;99.90;;;;;;5057582;28;20203;-86
2021/01/07 07:52:04;;;;;;;12.10;9.45;;;1.90;99.90;;;;;;5059999;28;20568;-85
2021/01/07 07:54:35;;;;;;;16.63;9.70;;;2.10;99.90;;;;;;5066596;28;20237;-85
2021/01/07 07:57:02;;;;;;;12.95;9.18;;;2.20;99.90;;;;;;5063841;28;20193;-85
2021/01/07 07:59:28;;;;;;;15.15;9.32;;;2.10;99.90;;;;;;5060802;28;20233;-85
2021/01/07 08:01:55;;;;;;;15.68;10.15;;;1.80;99.90;;;;;;5061339;28;20242;-85
2021/01/07 08:04:23;;;;;;;11.30;9.25;;;1.80;99.90;;;;;;5060334;28;20336;-83
2021/01/07 08:06:51;;;;;;;13.85;10.93;;;1.70;99.90;;;;;;5060417;28;20203;-85
2021/01/07 08:09:19;;;;;;;11.65;9.32;;;1.70;99.90;;;;;;5061102;28;20203;-84
2021/01/07 08:11:47;;;;;;;17.58;10.52;;;1.70;99.90;;;;;;5062152;28;20224;-85
2021/01/07 08:14:17;;;;;;;15.20;10.70;;;1.70;99.90;;;;;;5062068;28;20226;-83
2021/01/07 08:16:44;;;;;;;12.30;9.50;;;1.60;99.90;;;;;;5062966;28;20214;-86
2021/01/07 08:19:22;;;;;;;14.75;9.88;;;1.70;99.90;;;;;;5062949;28;20203;-84
2021/01/07 08:21:51;;;;;;;9.75;8.07;;;1.70;99.90;;;;;;5069286;28;20250;-84
2021/01/07 08:24:20;;;;;;;13.75;9.57;;;1.70;99.90;;;;;;5069904;28;20258;-86
2021/01/07 08:27:03;;;;;;;13.70;9.32;;;1.80;99.90;;;;;;5070638;28;20216;-86
2021/01/07 08:29:34;;;;;;;13.35;9.73;;;1.80;99.90;;;;;;5068872;28;20183;-84
2021/01/07 08:32:03;;;;;;;15.80;9.75;;;1.70;99.90;;;;;;5066669;28;20187;-85
2021/01/07 08:34:31;;;;;;;13.25;9.07;;;1.70;99.90;;;;;;5065700;28;20336;-84
2021/01/07 08:37:11;;;;;;;12.57;9.48;;;2.00;99.90;;;;;;5066851;28;20272;-85
2021/01/07 08:39:39;;;;;;;13.63;8.95;;;2.00;99.90;;;;;;5066616;28;20269;-85
2021/01/07 08:42:06;;;;;;;13.02;8.88;;;1.90;99.90;;;;;;5065416;28;20223;-85
2021/01/07 08:44:33;;;;;;;11.20;8.65;;;1.80;99.90;;;;;;5068220;28;20274;-84
2021/01/07 08:46:59;;;;;;;12.40;8.88;;;1.80;99.90;;;;;;5066013;28;20222;-85
2021/01/07 08:49:27;;;;;;;15.68;10.23;;;1.80;99.90;;;;;;5065648;28;20214;-85
2021/01/07 08:51:54;;;;;;;12.80;8.50;;;1.80;99.90;;;;;;5064813;28;20209;-85
2021/01/07 08:54:23;;;;;;;14.15;9.48;;;1.80;99.90;;;;;;5062063;28;20230;-85
2021/01/07 08:56:50;;;;;;;15.07;8.00;;;1.90;99.90;;;;;;5065245;28;20252;-85
2021/01/07 08:59:36;;;;;;;11.57;8.15;;;1.90;99.90;;;;;;5065822;28;20226;-85
2021/01/07 09:02:19;;;;;;;13.05;8.93;;;2.00;99.90;;;;;;5065627;28;20279;-85
2021/01/07 09:04:46;;;;;;;13.68;8.25;;;1.90;99.90;;;;;;5065354;28;20227;-84
2021/01/07 09:07:18;;;;;;;20.25;13.35;;;1.90;99.90;;;;;;5066332;28;20233;-84
2021/01/07 09:09:47;;;;;;;16.48;10.07;;;1.90;99.90;;;;;;5067412;28;20197;-84
2021/01/07 09:12:19;;;;;;;12.95;8.25;;;1.90;99.90;;;;;;5065201;28;20203;-84
2021/01/07 09:14:50;;;;;;;9.32;7.55;;;2.10;99.90;;;;;;5065276;28;20226;-85
2021/01/07 09:17:19;;;;;;;14.23;8.88;;;2.00;99.90;;;;;;5064682;28;20190;-85
2021/01/07 09:19:46;;;;;;;12.43;8.32;;;1.90;99.90;;;;;;5065807;28;20221;-85
2021/01/07 09:22:20;;;;;;;16.63;9.10;;;2.00;99.90;;;;;;5066948;28;20203;-85
2021/01/07 09:24:48;;;;;;;10.77;7.90;;;1.90;99.90;;;;;;5065338;28;20305;-84
2021/01/07 09:27:18;;;;;;;11.13;8.07;;;1.90;99.90;;;;;;5064100;28;20222;-85
2021/01/07 09:29:45;;;;;;;11.07;7.57;;;2.00;99.90;;;;;;5065262;28;20270;-85
2021/01/07 09:32:13;;;;;;;16.48;8.25;;;1.90;99.90;;;;;;5067558;28;20213;-85
2021/01/07 09:34:39;;;;;;;9.98;7.60;;;1.90;99.90;;;;;;5066899;28;20298;-84
2021/01/07 09:37:08;;;;;;;9.35;7.32;;;1.90;99.90;;;;;;5066095;28;20203;-84
2021/01/07 09:39:35;;;;;;;10.98;6.88;;;1.90;99.90;;;;;;5066988;28;20210;-85
2021/01/07 09:42:02;;;;;;;10.27;7.95;;;2.00;99.90;;;;;;5066642;28;20293;-85
2021/01/07 09:44:29;;;;;;;16.52;8.43;;;1.90;99.90;;;;;;5065879;28;20229;-85
2021/01/07 09:46:57;;;;;;;14.10;8.75;;;1.90;99.90;;;;;;5067116;28;20202;-85
2021/01/07 09:49:24;;;;;;;14.02;8.30;;;2.00;99.90;;;;;;5072844;28;20274;-85
2021/01/07 09:51:50;;;;;;;17.48;9.30;;;2.10;99.90;;;;;;5074870;28;20217;-85
2021/01/07 09:54:17;;;;;;;11.38;7.15;;;2.00;99.90;;;;;;5069654;28;20226;-85
2021/01/07 09:56:43;;;;;;;10.07;7.47;;;2.00;99.90;;;;;;5071637;28;20199;-84
2021/01/07 09:59:11;;;;;;;11.90;7.55;;;2.10;99.90;;;;;;5071016;28;20205;-84
2021/01/07 10:01:38;;;;;;;8.95;6.88;;;2.20;99.90;;;;;;5070023;28;20210;-84
2021/01/07 10:04:04;;;;;;;8.55;7.00;;;2.10;99.90;;;;;;5065950;28;20223;-84
2021/01/07 10:06:31;;;;;;;14.43;7.80;;;2.00;99.90;;;;;;5065031;28;20271;-84
2021/01/07 10:08:57;;;;;;;15.52;9.73;;;2.10;99.90;;;;;;5065709;28;20219;-84
2021/01/07 10:11:24;;;;;;;8.52;6.35;;;2.10;99.90;;;;;;5064888;28;20231;-85
2021/01/07 10:13:50;;;;;;;11.45;7.35;;;2.10;99.90;;;;;;5064359;28;20265;-85
2021/01/07 10:16:17;;;;;;;8.77;6.40;;;2.10;99.90;;;;;;5064089;28;20253;-84
2021/01/07 10:18:43;;;;;;;9.32;7.32;;;2.10;99.90;;;;;;5064929;28;20285;-85
2021/01/07 10:21:14;;;;;;;11.07;7.55;;;2.10;99.90;;;;;;5063414;28;20290;-84
2021/01/07 10:23:41;;;;;;;9.30;7.10;;;2.10;99.90;;;;;;5061900;28;20268;-84
2021/01/07 10:26:10;;;;;;;8.85;6.47;;;2.10;99.90;;;;;;5063662;28;20203;-84
2021/01/07 10:28:38;;;;;;;7.82;6.22;;;2.20;99.90;;;;;;5063364;28;20340;-83
2021/01/07 10:31:05;;;;;;;8.52;6.22;;;2.20;99.90;;;;;;5062579;28;20202;-84
2021/01/07 10:33:33;;;;;;;10.38;6.72;;;2.10;99.90;;;;;;5062197;28;20206;-83
2021/01/07 10:35:59;;;;;;;16.77;7.75;;;2.10;99.90;;;;;;5061284;28;20191;-83
2021/01/07 10:38:26;;;;;;;8.00;6.57;;;2.10;99.90;;;;;;5062808;28;20194;-84
2021/01/07 10:40:54;;;;;;;7.88;6.00;;;2.20;99.90;;;;;;5063931;28;20209;-84
2021/01/07 10:43:21;;;;;;;8.05;6.03;;;2.40;99.90;;;;;;5065477;28;20211;-84
2021/01/07 10:45:51;;;;;;;8.50;6.28;;;2.30;99.90;;;;;;5065719;28;20203;-84
2021/01/07 10:48:21;;;;;;;10.50;6.75;;;2.20;99.90;;;;;;5064389;28;20230;-85
2021/01/07 10:50:49;;;;;;;11.88;6.40;;;2.30;99.90;;;;;;5066006;28;20219;-85
2021/01/07 10:53:52;;;;;;;6.43;5.72;;;2.20;99.90;;;;;;5065931;28;20202;-84
2021/01/07 10:56:25;;;;;;;7.82;6.10;;;2.20;99.90;;;;;;5064293;28;20190;-84
2021/01/07 10:59:23;;;;;;;8.18;6.03;;;2.20;99.90;;;;;;5063789;28;20187;-84
2021/01/07 11:02:14;;;;;;;9.50;5.20;;;2.10;99.90;;;;;;5065124;28;20274;-84
2021/01/07 11:05:03;;;;;;;8.25;6.00;;;2.20;99.90;;;;;;5061113;28;20222;-86
2021/01/07 11:07:38;;;;;;;8.85;6.20;;;2.10;99.90;;;;;;5060473;28;20217;-86
2021/01/07 11:10:14;;;;;;;7.60;6.05;;;2.20;99.90;;;;;;5060357;28;20274;-85
2021/01/07 11:12:56;;;;;;;8.60;7.03;;;2.20;99.90;;;;;;5058211;28;20310;-87
2021/01/07 11:15:26;;;;;;;6.10;5.50;;;2.30;99.90;;;;;;5057047;28;20227;-86
2021/01/07 11:17:56;;;;;;;8.68;6.85;;;2.30;99.90;;;;;;5057123;28;20233;-86
2021/01/07 11:20:26;;;;;;;7.00;5.60;;;2.20;99.90;;;;;;5063307;28;20636;-86
2021/01/07 11:22:55;;;;;;;7.13;6.13;;;2.20;99.90;;;;;;5063600;28;20199;-86
2021/01/07 11:25:31;;;;;;;8.77;6.13;;;2.20;99.90;;;;;;5064256;28;20231;-87
2021/01/07 11:28:05;;;;;;;10.32;8.10;;;2.20;99.90;;;;;;5062797;28;20207;-87
2021/01/07 11:30:31;;;;;;;7.90;6.75;;;2.10;99.90;;;;;;5062155;28;20192;-86
2021/01/07 11:33:02;;;;;;;8.00;6.40;;;2.30;99.90;;;;;;5065453;28;20698;-87
2021/01/07 11:35:29;;;;;;;8.77;6.70;;;2.20;99.90;;;;;;5067107;28;20242;-86
2021/01/07 11:38:10;;;;;;;6.15;5.55;;;2.10;99.90;;;;;;5081244;28;20214;-85
2021/01/07 11:40:48;;;;;;;8.30;7.30;;;2.20;99.90;;;;;;5079880;28;20701;-85
2021/01/07 11:43:51;;;;;;;11.65;7.78;;;2.20;99.90;;;;;;5070771;28;20250;-86
2021/01/07 11:46:19;;;;;;;7.43;6.60;;;2.20;99.90;;;;;;5072225;28;20210;-87
2021/01/07 11:48:52;;;;;;;10.13;7.00;;;2.30;99.90;;;;;;5065200;28;20703;-86
2021/01/07 11:51:18;;;;;;;11.82;7.85;;;2.30;99.90;;;;;;5076713;28;20183;-86
2021/01/07 11:53:46;;;;;;;12.35;8.30;;;2.20;99.90;;;;;;5081024;28;20270;-85
2021/01/07 11:56:13;;;;;;;12.23;8.85;;;2.20;99.90;;;;;;5080976;28;20179;-85
2021/01/07 11:58:42;;;;;;;10.93;8.40;;;2.10;99.90;;;;;;5081413;28;20246;-86
2021/01/07 12:01:09;;;;;;;11.70;8.07;;;2.10;99.90;;;;;;5081329;28;20173;-85
2021/01/07 12:03:37;;;;;;;8.30;6.97;;;2.00;99.90;;;;;;5080324;28;20241;-85
2021/01/07 12:06:05;;;;;;;9.57;8.48;;;2.00;99.90;;;;;;5080638;28;20197;-84
2021/01/07 12:08:53;;;;;;;11.10;8.02;;;2.10;99.90;;;;;;5081126;28;20249;-85
2021/01/07 12:11:23;;;;;;;11.10;8.55;;;2.10;99.90;;;;;;5081032;28;20195;-85
2021/01/07 12:13:58;;;;;;;12.48;9.23;;;2.10;99.90;;;;;;5080170;28;20219;-86
2021/01/07 12:16:30;;;;;;;13.10;9.02;;;2.10;99.90;;;;;;5076952;28;20206;-85
2021/01/07 12:18:57;;;;;;;9.82;7.85;;;2.20;99.90;;;;;;5070267;28;20185;-86
2021/01/07 12:21:24;;;;;;;12.73;8.57;;;2.10;99.90;;;;;;5069710;28;20569;-87
2021/01/07 12:23:56;;;;;;;9.95;7.78;;;2.20;99.90;;;;;;5068800;28;20223;-86
2021/01/07 12:26:23;;;;;;;11.55;8.68;;;2.10;99.90;;;;;;5065654;28;20202;-86
2021/01/07 12:28:52;;;;;;;13.10;9.75;;;2.10;99.90;;;;;;5066934;28;20246;-86
2021/01/07 12:31:21;;;;;;;11.38;10.18;;;2.00;99.90;;;;;;5075037;28;20199;-86
2021/01/07 12:33:58;;;;;;;15.15;9.38;;;2.00;99.90;;;;;;5075810;28;20265;-86
2021/01/07 12:39:36;;;;;;;10.35;8.32;;;1.90;99.90;;;;;;5074926;28;20206;-86
2021/01/07 12:42:10;;;;;;;10.93;8.68;;;1.90;99.90;;;;;;5078040;28;20247;-86
2021/01/07 12:44:39;;;;;;;10.43;9.05;;;2.00;99.90;;;;;;5071834;28;20227;-86
2021/01/07 12:47:07;;;;;;;9.75;8.48;;;2.00;99.90;;;;;;5069734;28;20270;-86
2021/01/07 12:49:37;;;;;;;11.80;9.18;;;2.00;99.90;;;;;;5069404;28;20290;-86
2021/01/07 12:52:05;;;;;;;11.00;9.07;;;2.10;99.90;;;;;;5073191;28;20203;-86
2021/01/07 12:54:34;;;;;;;10.95;8.65;;;2.20;99.90;;;;;;5073405;28;20219;-87
2021/01/07 12:57:05;;;;;;;12.80;8.88;;;2.20;99.90;;;;;;5078068;28;20209;-85
2021/01/07 12:59:39;;;;;;;10.43;8.45;;;2.20;99.90;;;;;;5079574;28;20183;-85
2021/01/07 13:02:33;;;;;;;10.20;8.68;;;2.30;99.90;;;;;;5079493;28;20179;-87
2021/01/07 13:05:09;;;;;;;10.23;7.65;;;2.20;99.90;;;;;;5078332;28;20225;-86
2021/01/07 13:07:40;;;;;;;8.70;7.25;;;2.30;99.90;;;;;;5077061;28;20292;-85
2021/01/07 13:10:10;;;;;;;9.45;7.45;;;2.20;99.90;;;;;;5078700;28;20198;-85
2021/01/07 13:12:39;;;;;;;11.77;7.65;;;2.20;99.90;;;;;;5075861;28;20202;-86
2021/01/07 13:15:08;;;;;;;8.88;7.97;;;2.20;99.90;;;;;;5075756;28;20295;-85
2021/01/07 13:17:35;;;;;;;10.32;7.82;;;2.10;99.90;;;;;;5074809;28;20203;-86
2021/01/07 13:20:01;;;;;;;8.90;6.97;;;2.20;99.90;;;;;;5071958;28;20260;-86
2021/01/07 13:22:27;;;;;;;13.95;8.30;;;2.20;99.90;;;;;;5073529;28;20267;-85
2021/01/07 13:24:57;;;;;;;9.35;7.85;;;2.20;99.90;;;;;;5076122;28;20230;-86
2021/01/07 13:27:26;;;;;;;9.60;7.55;;;2.20;99.90;;;;;;5075799;28;20191;-86
2021/01/07 13:29:55;;;;;;;8.75;7.78;;;2.20;99.90;;;;;;5074447;28;20183;-86
2021/01/07 13:32:22;;;;;;;7.65;6.82;;;2.40;99.90;;;;;;5075503;28;20285;-86
2021/01/07 13:34:52;;;;;;;8.20;6.05;;;2.20;99.90;;;;;;5076095;28;20231;-86
2021/01/07 13:37:20;;;;;;;10.60;7.78;;;2.20;99.90;;;;;;5075322;28;20191;-86
2021/01/07 13:39:47;;;;;;;9.02;7.38;;;2.30;99.90;;;;;;5076327;28;20671;-86
2021/01/07 13:42:15;;;;;;;9.20;7.13;;;2.30;99.90;;;;;;5075668;28;20245;-86
2021/01/07 13:44:47;;;;;;;7.75;6.97;;;2.30;99.90;;;;;;5075876;28;20254;-86
2021/01/07 13:47:16;;;;;;;8.73;6.97;;;2.30;99.90;;;;;;5075893;28;20225;-86
2021/01/07 13:49:46;;;;;;;7.75;6.68;;;2.40;99.90;;;;;;5069544;28;20218;-86
2021/01/07 13:52:17;;;;;;;17.20;11.00;;;2.50;99.90;;;;;;5063967;28;20191;-86
2021/01/07 13:54:44;;;;;;;7.80;6.32;;;2.40;99.90;;;;;;5070053;28;20234;-86
2021/01/07 13:57:10;;;;;;;7.20;6.47;;;2.50;99.90;;;;;;5078029;28;20191;-85
2021/01/07 13:59:37;;;;;;;7.65;6.65;;;2.50;99.90;;;;;;5077776;28;20206;-86
2021/01/07 14:02:09;;;;;;;6.95;6.25;;;2.50;99.90;;;;;;5075549;28;20195;-86
2021/01/07 14:04:37;;;;;;;7.60;6.22;;;2.40;99.90;;;;;;5077961;28;20211;-86
2021/01/07 14:07:08;;;;;;;11.95;6.95;;;2.40;99.90;;;;;;5076279;28;20263;-85
2021/01/07 14:09:37;;;;;;;9.23;6.90;;;2.30;99.90;;;;;;5077990;28;20232;-85
2021/01/07 14:12:10;;;;;;;7.30;6.50;;;2.40;99.90;;;;;;5077851;28;20210;-87
2021/01/07 14:14:41;;;;;;;8.80;7.05;;;2.40;99.90;;;;;;5077782;28;20266;-85
2021/01/07 14:17:08;;;;;;;8.00;7.20;;;2.40;99.90;;;;;;5078017;28;20202;-85
2021/01/07 14:19:38;;;;;;;7.10;6.40;;;2.50;99.90;;;;;;5077798;28;20238;-85
2021/01/07 14:22:08;;;;;;;8.65;7.60;;;2.40;99.90;;;;;;5077593;28;20289;-86
2021/01/07 14:24:35;;;;;;;8.68;7.60;;;2.40;99.90;;;;;;5076149;28;20202;-86
2021/01/07 14:27:10;;;;;;;7.40;6.70;;;2.50;99.90;;;;;;5076108;28;20248;-86
2021/01/07 14:29:43;;;;;;;8.80;7.90;;;2.40;99.90;;;;;;5075918;28;20229;-86
2021/01/07 14:32:10;;;;;;;10.30;7.55;;;2.40;99.90;;;;;;5074750;28;20194;-85
2021/01/07 14:34:39;;;;;;;8.57;7.68;;;2.50;99.90;;;;;;5073044;28;20246;-86
2021/01/07 14:37:05;;;;;;;8.23;7.43;;;2.60;99.90;;;;;;5060110;28;20202;-86